map of TNG home
TNG - Airport
Location
City:  Tangier, Tanger-Tétouan, Morocco
Near (Alt.):Tanger
Name:Ibn Batouta Airport
Old (Alt.):Boukhalef Airport
ICAO:GMTT
IATA:TNG

Details
Type:Airport (Aerodrome, Airfield)
Use:Public/Civil, International (customs port of entry)
Latitude:35°43'54"N (35.731667)
Longitude:5°55'16"W (-5.921110)
Elevation:69 ft (21 m)
Variation:1.19°W (WMM2015 magnetic declination)
0.11° annual change
Runways:1
Longest:11483 × 148 ft (3500 × 45 m), paved

Time
Time Zone:UTC+0 (DST+1)
Local Time:

Weather
METAR:GMTT 210500Z 10003KT 6000 SCT016 16/14 Q1016 NOSIG
TAF:GMTT 210500Z 2106/2212 10003KT 8000 SCT016
BECMG 2122/2124 10014KT

Related Locations
Nearby:
Farthest:NZRW: 12438 mi / 20017 km
Ruawai, NTL, NZ

Find:

   beyond  
but within

Other Information
Maps:
NOTAMs:
Links:
Sources:

  
  • flag of Morocco
  

Sectional Chart

Flight Planning
at skyvector.com

Satellite Image

Google Maps Satellite view

 

Copyright © 2004-2018 Karl L. Swartz. All rights reserved.
The Great Circle Mapper name and logo are trademarks of the Great Circle Mapper.
All other trademarks mentioned herein belong to their respective owners.
Please see credits for attibutions and further copyright information.

  Follow gcmap on Facebook Follow gcmap on Twitter Follow gcmap on Google+ GCmap on LinkedIn

hCard Microformat

Geo Microformat